Zanjan, Iran
Current Conditions -  °F | °C
As of 6:30 AM on Sunday 26 Oct 2014 (Local Time) from OIGG Reporting Station
Light Rain Light Rain  
Wind Chill: 54°   Ceiling: 1000
Heat Index: 54°   Visibility: 2.1mi
Dew Point: 54°   Wind: 0mph
Humidity: 100%   Direction: NA
Pressure: 30.33"   Gusts: NA
Location:  36.67°N, 48.5°E
Report Text: OIGG 260330Z 00000KT 3500 -RA BKN010 FEW015CBOVC070 12/12 Q1027
Loading
Personal Weather Stations






























Interactive Weather Map
Tropical Storm Tracking
New forecast layout! Learn more

10-Day Weather Forecast

Advertisements
Track Severe Weather on mobile